sensor_id;sensor_type;location;lat;lon;timestamp;P1;durP1;ratioP1;P2;durP2;ratioP2
51692;SDS011;37777;53.066;21.638;2023-05-14T00:03:07;14.18;;;8.23;;
51692;SDS011;37777;53.066;21.638;2023-05-14T00:10:09;15.80;;;8.55;;
51692;SDS011;37777;53.066;21.638;2023-05-14T00:17:11;11.98;;;8.10;;
51692;SDS011;37777;53.066;21.638;2023-05-14T00:24:13;17.17;;;9.18;;
51692;SDS011;37777;53.066;21.638;2023-05-14T00:31:15;12.82;;;9.50;;
51692;SDS011;37777;53.066;21.638;2023-05-14T00:38:17;19.13;;;9.27;;
51692;SDS011;37777;53.066;21.638;2023-05-14T00:45:20;14.38;;;7.68;;
51692;SDS011;37777;53.066;21.638;2023-05-14T00:52:22;12.32;;;8.35;;
51692;SDS011;37777;53.066;21.638;2023-05-14T00:59:24;12.40;;;8.18;;
51692;SDS011;37777;53.066;21.638;2023-05-14T01:06:29;17.38;;;9.18;;
51692;SDS011;37777;53.066;21.638;2023-05-14T01:28:36;12.23;;;8.55;;
51692;SDS011;37777;53.066;21.638;2023-05-14T01:35:39;11.68;;;8.13;;
51692;SDS011;37777;53.066;21.638;2023-05-14T01:42:41;11.23;;;8.02;;
51692;SDS011;37777;53.066;21.638;2023-05-14T01:49:44;13.18;;;8.60;;
51692;SDS011;37777;53.066;21.638;2023-05-14T01:56:46;14.02;;;8.77;;
51692;SDS011;37777;53.066;21.638;2023-05-14T02:03:48;13.35;;;8.35;;
51692;SDS011;37777;53.066;21.638;2023-05-14T02:10:50;20.25;;;9.35;;
51692;SDS011;37777;53.066;21.638;2023-05-14T02:17:52;10.50;;;8.38;;
51692;SDS011;37777;53.066;21.638;2023-05-14T02:24:54;14.55;;;9.05;;
51692;SDS011;37777;53.066;21.638;2023-05-14T02:31:56;15.05;;;8.68;;
51692;SDS011;37777;53.066;21.638;2023-05-14T02:38:58;13.13;;;8.13;;
51692;SDS011;37777;53.066;21.638;2023-05-14T02:46:01;13.10;;;7.95;;
51692;SDS011;37777;53.066;21.638;2023-05-14T02:53:04;12.20;;;8.10;;
51692;SDS011;37777;53.066;21.638;2023-05-14T03:00:06;16.77;;;7.80;;
51692;SDS011;37777;53.066;21.638;2023-05-14T03:07:10;17.80;;;8.50;;
51692;SDS011;37777;53.066;21.638;2023-05-14T03:14:11;15.70;;;9.23;;
51692;SDS011;37777;53.066;21.638;2023-05-14T03:21:13;14.98;;;8.48;;
51692;SDS011;37777;53.066;21.638;2023-05-14T03:28:15;15.07;;;9.00;;
51692;SDS011;37777;53.066;21.638;2023-05-14T03:35:17;17.27;;;8.32;;
51692;SDS011;37777;53.066;21.638;2023-05-14T03:42:19;12.27;;;8.57;;
51692;SDS011;37777;53.066;21.638;2023-05-14T03:49:21;15.18;;;8.95;;
51692;SDS011;37777;53.066;21.638;2023-05-14T03:56:23;14.68;;;9.60;;
51692;SDS011;37777;53.066;21.638;2023-05-14T04:03:26;17.42;;;9.90;;
51692;SDS011;37777;53.066;21.638;2023-05-14T04:10:29;15.23;;;9.60;;
51692;SDS011;37777;53.066;21.638;2023-05-14T04:17:32;13.95;;;9.57;;
51692;SDS011;37777;53.066;21.638;2023-05-14T04:24:35;12.57;;;9.55;;
51692;SDS011;37777;53.066;21.638;2023-05-14T04:31:37;18.67;;;9.75;;
51692;SDS011;37777;53.066;21.638;2023-05-14T04:38:40;17.52;;;10.05;;
51692;SDS011;37777;53.066;21.638;2023-05-14T04:45:42;14.55;;;9.40;;
51692;SDS011;37777;53.066;21.638;2023-05-14T04:52:44;15.65;;;9.88;;
51692;SDS011;37777;53.066;21.638;2023-05-14T04:59:46;14.13;;;9.48;;
51692;SDS011;37777;53.066;21.638;2023-05-14T05:06:48;12.32;;;8.32;;
51692;SDS011;37777;53.066;21.638;2023-05-14T05:13:51;14.48;;;7.50;;
51692;SDS011;37777;53.066;21.638;2023-05-14T05:20:53;12.38;;;8.75;;
51692;SDS011;37777;53.066;21.638;2023-05-14T05:27:55;13.77;;;7.80;;
51692;SDS011;37777;53.066;21.638;2023-05-14T05:34:57;12.20;;;7.68;;
51692;SDS011;37777;53.066;21.638;2023-05-14T05:41:59;9.95;;;6.72;;
51692;SDS011;37777;53.066;21.638;2023-05-14T05:49:02;10.45;;;6.75;;
51692;SDS011;37777;53.066;21.638;2023-05-14T05:56:05;15.63;;;6.32;;
51692;SDS011;37777;53.066;21.638;2023-05-14T06:03:07;7.93;;;5.93;;
51692;SDS011;37777;53.066;21.638;2023-05-14T06:10:09;16.35;;;6.50;;
51692;SDS011;37777;53.066;21.638;2023-05-14T06:17:11;10.55;;;6.03;;
51692;SDS011;37777;53.066;21.638;2023-05-14T06:24:14;7.65;;;5.10;;
51692;SDS011;37777;53.066;21.638;2023-05-14T06:31:17;6.28;;;5.13;;
51692;SDS011;37777;53.066;21.638;2023-05-14T06:38:19;7.63;;;4.82;;
51692;SDS011;37777;53.066;21.638;2023-05-14T06:45:21;6.07;;;4.30;;
51692;SDS011;37777;53.066;21.638;2023-05-14T06:52:23;6.85;;;4.00;;
51692;SDS011;37777;53.066;21.638;2023-05-14T06:59:26;9.15;;;4.45;;
51692;SDS011;37777;53.066;21.638;2023-05-14T07:06:28;6.30;;;3.78;;
51692;SDS011;37777;53.066;21.638;2023-05-14T07:13:30;5.15;;;3.40;;
51692;SDS011;37777;53.066;21.638;2023-05-14T07:20:32;2.80;;;2.60;;
51692;SDS011;37777;53.066;21.638;2023-05-14T07:27:34;7.38;;;2.88;;
51692;SDS011;37777;53.066;21.638;2023-05-14T07:34:36;3.92;;;2.55;;
51692;SDS011;37777;53.066;21.638;2023-05-14T07:41:38;4.78;;;2.50;;
51692;SDS011;37777;53.066;21.638;2023-05-14T07:48:40;4.25;;;3.03;;
51692;SDS011;37777;53.066;21.638;2023-05-14T07:55:43;6.10;;;2.33;;
51692;SDS011;37777;53.066;21.638;2023-05-14T08:02:47;4.40;;;2.22;;
51692;SDS011;37777;53.066;21.638;2023-05-14T08:09:49;3.25;;;2.20;;
51692;SDS011;37777;53.066;21.638;2023-05-14T08:16:51;2.28;;;2.08;;
51692;SDS011;37777;53.066;21.638;2023-05-14T08:23:54;3.20;;;1.80;;
51692;SDS011;37777;53.066;21.638;2023-05-14T08:30:56;2.75;;;2.20;;
51692;SDS011;37777;53.066;21.638;2023-05-14T08:37:58;2.38;;;2.10;;
51692;SDS011;37777;53.066;21.638;2023-05-14T08:45:01;2.40;;;2.17;;
51692;SDS011;37777;53.066;21.638;2023-05-14T08:52:04;4.95;;;2.20;;
51692;SDS011;37777;53.066;21.638;2023-05-14T08:59:06;3.53;;;2.15;;
51692;SDS011;37777;53.066;21.638;2023-05-14T09:06:08;5.28;;;2.30;;
51692;SDS011;37777;53.066;21.638;2023-05-14T09:13:11;2.45;;;1.80;;
51692;SDS011;37777;53.066;21.638;2023-05-14T09:20:13;2.15;;;1.95;;
51692;SDS011;37777;53.066;21.638;2023-05-14T09:27:19;6.05;;;2.53;;
51692;SDS011;37777;53.066;21.638;2023-05-14T09:34:25;3.83;;;1.80;;
51692;SDS011;37777;53.066;21.638;2023-05-14T09:41:28;2.92;;;2.05;;
51692;SDS011;37777;53.066;21.638;2023-05-14T09:48:30;1.83;;;1.70;;
51692;SDS011;37777;53.066;21.638;2023-05-14T09:55:32;4.93;;;1.75;;
51692;SDS011;37777;53.066;21.638;2023-05-14T10:02:37;3.45;;;2.05;;
51692;SDS011;37777;53.066;21.638;2023-05-14T10:09:41;2.47;;;1.90;;
51692;SDS011;37777;53.066;21.638;2023-05-14T10:16:48;5.07;;;1.80;;
51692;SDS011;37777;53.066;21.638;2023-05-14T10:23:52;2.42;;;1.83;;
51692;SDS011;37777;53.066;21.638;2023-05-14T10:30:54;3.65;;;1.60;;
51692;SDS011;37777;53.066;21.638;2023-05-14T10:37:56;1.67;;;1.58;;
51692;SDS011;37777;53.066;21.638;2023-05-14T10:45:02;2.08;;;1.60;;
51692;SDS011;37777;53.066;21.638;2023-05-14T10:52:08;2.25;;;1.73;;
51692;SDS011;37777;53.066;21.638;2023-05-14T10:59:10;4.15;;;1.88;;
51692;SDS011;37777;53.066;21.638;2023-05-14T11:06:13;2.85;;;1.67;;
51692;SDS011;37777;53.066;21.638;2023-05-14T11:13:16;4.53;;;1.70;;
51692;SDS011;37777;53.066;21.638;2023-05-14T11:20:21;8.85;;;1.92;;
51692;SDS011;37777;53.066;21.638;2023-05-14T11:27:26;3.63;;;1.60;;
51692;SDS011;37777;53.066;21.638;2023-05-14T11:34:28;4.20;;;1.98;;
51692;SDS011;37777;53.066;21.638;2023-05-14T11:41:30;4.28;;;1.80;;
51692;SDS011;37777;53.066;21.638;2023-05-14T11:48:32;1.77;;;1.63;;
51692;SDS011;37777;53.066;21.638;2023-05-14T11:55:34;1.77;;;1.40;;
51692;SDS011;37777;53.066;21.638;2023-05-14T12:02:36;7.93;;;1.70;;
51692;SDS011;37777;53.066;21.638;2023-05-14T12:09:40;1.80;;;1.58;;
51692;SDS011;37777;53.066;21.638;2023-05-14T12:16:45;2.00;;;1.83;;
51692;SDS011;37777;53.066;21.638;2023-05-14T12:23:55;3.03;;;1.60;;
51692;SDS011;37777;53.066;21.638;2023-05-14T12:30:59;3.15;;;1.42;;
51692;SDS011;37777;53.066;21.638;2023-05-14T12:38:02;3.05;;;1.60;;
51692;SDS011;37777;53.066;21.638;2023-05-14T12:45:04;2.20;;;1.63;;
51692;SDS011;37777;53.066;21.638;2023-05-14T12:52:09;7.35;;;1.85;;
51692;SDS011;37777;53.066;21.638;2023-05-14T12:59:14;3.78;;;1.92;;
51692;SDS011;37777;53.066;21.638;2023-05-14T13:06:16;2.58;;;1.52;;
51692;SDS011;37777;53.066;21.638;2023-05-14T13:13:18;1.75;;;1.52;;
51692;SDS011;37777;53.066;21.638;2023-05-14T13:20:20;2.60;;;1.85;;
51692;SDS011;37777;53.066;21.638;2023-05-14T13:27:24;2.22;;;1.63;;
51692;SDS011;37777;53.066;21.638;2023-05-14T13:34:26;3.78;;;1.50;;
51692;SDS011;37777;53.066;21.638;2023-05-14T13:41:28;1.60;;;1.20;;
51692;SDS011;37777;53.066;21.638;2023-05-14T13:48:30;3.00;;;1.77;;
51692;SDS011;37777;53.066;21.638;2023-05-14T13:55:33;2.03;;;1.27;;
51692;SDS011;37777;53.066;21.638;2023-05-14T14:02:35;2.50;;;1.80;;
51692;SDS011;37777;53.066;21.638;2023-05-14T14:09:37;2.97;;;1.67;;
51692;SDS011;37777;53.066;21.638;2023-05-14T14:16:39;1.50;;;1.35;;
51692;SDS011;37777;53.066;21.638;2023-05-14T14:23:41;2.42;;;1.70;;
51692;SDS011;37777;53.066;21.638;2023-05-14T14:30:43;5.35;;;1.70;;
51692;SDS011;37777;53.066;21.638;2023-05-14T14:37:45;1.48;;;1.38;;
51692;SDS011;37777;53.066;21.638;2023-05-14T14:44:51;1.80;;;1.70;;
51692;SDS011;37777;53.066;21.638;2023-05-14T14:51:53;2.25;;;2.05;;
51692;SDS011;37777;53.066;21.638;2023-05-14T14:58:55;1.60;;;1.50;;
51692;SDS011;37777;53.066;21.638;2023-05-14T15:05:57;1.75;;;1.65;;
51692;SDS011;37777;53.066;21.638;2023-05-14T15:12:59;2.63;;;1.60;;
51692;SDS011;37777;53.066;21.638;2023-05-14T15:20:01;1.45;;;1.35;;
51692;SDS011;37777;53.066;21.638;2023-05-14T15:27:03;3.15;;;1.70;;
51692;SDS011;37777;53.066;21.638;2023-05-14T15:34:05;1.98;;;1.67;;
51692;SDS011;37777;53.066;21.638;2023-05-14T15:41:07;4.47;;;1.70;;
51692;SDS011;37777;53.066;21.638;2023-05-14T15:48:09;2.50;;;1.70;;
51692;SDS011;37777;53.066;21.638;2023-05-14T15:55:12;7.65;;;1.80;;
51692;SDS011;37777;53.066;21.638;2023-05-14T16:02:14;3.58;;;1.90;;
51692;SDS011;37777;53.066;21.638;2023-05-14T16:09:17;1.70;;;1.60;;
51692;SDS011;37777;53.066;21.638;2023-05-14T16:16:19;2.85;;;1.85;;
51692;SDS011;37777;53.066;21.638;2023-05-14T16:23:23;2.55;;;1.77;;
51692;SDS011;37777;53.066;21.638;2023-05-14T16:30:25;2.47;;;1.60;;
51692;SDS011;37777;53.066;21.638;2023-05-14T16:37:28;5.80;;;1.70;;
51692;SDS011;37777;53.066;21.638;2023-05-14T16:44:30;1.80;;;1.70;;
51692;SDS011;37777;53.066;21.638;2023-05-14T16:51:32;4.70;;;2.00;;
51692;SDS011;37777;53.066;21.638;2023-05-14T16:58:34;2.83;;;1.70;;
51692;SDS011;37777;53.066;21.638;2023-05-14T17:05:36;4.43;;;1.95;;
51692;SDS011;37777;53.066;21.638;2023-05-14T17:12:40;4.53;;;1.60;;
51692;SDS011;37777;53.066;21.638;2023-05-14T17:19:42;1.63;;;1.52;;
51692;SDS011;37777;53.066;21.638;2023-05-14T17:26:44;3.03;;;1.73;;
51692;SDS011;37777;53.066;21.638;2023-05-14T17:33:46;6.43;;;1.90;;
51692;SDS011;37777;53.066;21.638;2023-05-14T17:40:48;5.60;;;2.20;;
51692;SDS011;37777;53.066;21.638;2023-05-14T17:47:50;2.67;;;2.08;;
51692;SDS011;37777;53.066;21.638;2023-05-14T17:54:52;2.17;;;1.98;;
51692;SDS011;37777;53.066;21.638;2023-05-14T18:01:54;3.17;;;2.38;;
51692;SDS011;37777;53.066;21.638;2023-05-14T18:08:57;4.82;;;2.40;;
51692;SDS011;37777;53.066;21.638;2023-05-14T18:15:59;6.25;;;2.75;;
51692;SDS011;37777;53.066;21.638;2023-05-14T18:23:02;3.22;;;2.72;;
51692;SDS011;37777;53.066;21.638;2023-05-14T18:30:05;7.70;;;2.70;;
51692;SDS011;37777;53.066;21.638;2023-05-14T18:37:08;6.30;;;2.70;;
51692;SDS011;37777;53.066;21.638;2023-05-14T18:44:11;4.63;;;2.45;;
51692;SDS011;37777;53.066;21.638;2023-05-14T18:51:17;3.22;;;2.67;;
51692;SDS011;37777;53.066;21.638;2023-05-14T18:58:20;10.88;;;3.10;;
51692;SDS011;37777;53.066;21.638;2023-05-14T19:05:22;4.18;;;3.08;;
51692;SDS011;37777;53.066;21.638;2023-05-14T19:12:25;9.32;;;3.15;;
51692;SDS011;37777;53.066;21.638;2023-05-14T19:19:27;6.20;;;3.55;;
51692;SDS011;37777;53.066;21.638;2023-05-14T19:26:29;5.93;;;3.50;;
51692;SDS011;37777;53.066;21.638;2023-05-14T19:33:32;8.68;;;3.50;;
51692;SDS011;37777;53.066;21.638;2023-05-14T19:40:34;7.15;;;3.53;;
51692;SDS011;37777;53.066;21.638;2023-05-14T19:47:37;5.30;;;3.70;;
51692;SDS011;37777;53.066;21.638;2023-05-14T19:54:39;8.10;;;3.80;;
51692;SDS011;37777;53.066;21.638;2023-05-14T20:01:42;5.80;;;4.28;;
51692;SDS011;37777;53.066;21.638;2023-05-14T20:08:45;7.22;;;3.47;;
51692;SDS011;37777;53.066;21.638;2023-05-14T20:15:47;7.03;;;4.45;;
51692;SDS011;37777;53.066;21.638;2023-05-14T20:22:49;4.85;;;3.60;;
51692;SDS011;37777;53.066;21.638;2023-05-14T20:29:51;4.70;;;3.95;;
51692;SDS011;37777;53.066;21.638;2023-05-14T20:36:54;6.65;;;4.15;;
51692;SDS011;37777;53.066;21.638;2023-05-14T20:43:58;6.70;;;4.40;;
51692;SDS011;37777;53.066;21.638;2023-05-14T20:51:00;6.47;;;4.03;;
51692;SDS011;37777;53.066;21.638;2023-05-14T20:58:02;5.97;;;4.75;;
51692;SDS011;37777;53.066;21.638;2023-05-14T21:05:07;7.80;;;3.95;;
51692;SDS011;37777;53.066;21.638;2023-05-14T21:12:09;7.38;;;4.15;;
51692;SDS011;37777;53.066;21.638;2023-05-14T21:19:11;8.93;;;4.22;;
51692;SDS011;37777;53.066;21.638;2023-05-14T21:26:15;10.52;;;4.50;;
51692;SDS011;37777;53.066;21.638;2023-05-14T21:33:17;5.70;;;4.35;;
51692;SDS011;37777;53.066;21.638;2023-05-14T21:40:19;7.85;;;4.78;;
51692;SDS011;37777;53.066;21.638;2023-05-14T21:47:21;14.10;;;4.50;;
51692;SDS011;37777;53.066;21.638;2023-05-14T21:54:23;5.22;;;3.90;;
51692;SDS011;37777;53.066;21.638;2023-05-14T22:01:25;5.35;;;4.07;;
51692;SDS011;37777;53.066;21.638;2023-05-14T22:08:27;6.97;;;3.78;;
51692;SDS011;37777;53.066;21.638;2023-05-14T22:15:31;4.50;;;4.10;;
51692;SDS011;37777;53.066;21.638;2023-05-14T22:22:33;6.78;;;4.40;;
51692;SDS011;37777;53.066;21.638;2023-05-14T22:29:35;8.30;;;4.63;;
51692;SDS011;37777;53.066;21.638;2023-05-14T22:36:38;10.10;;;4.78;;
51692;SDS011;37777;53.066;21.638;2023-05-14T22:43:40;10.18;;;4.80;;
51692;SDS011;37777;53.066;21.638;2023-05-14T22:50:42;7.47;;;4.28;;
51692;SDS011;37777;53.066;21.638;2023-05-14T22:57:44;4.95;;;4.20;;
51692;SDS011;37777;53.066;21.638;2023-05-14T23:04:46;8.20;;;4.30;;
51692;SDS011;37777;53.066;21.638;2023-05-14T23:11:48;7.60;;;4.18;;
51692;SDS011;37777;53.066;21.638;2023-05-14T23:18:50;6.53;;;4.38;;
51692;SDS011;37777;53.066;21.638;2023-05-14T23:25:53;5.28;;;4.60;;
51692;SDS011;37777;53.066;21.638;2023-05-14T23:32:56;10.35;;;4.90;;
51692;SDS011;37777;53.066;21.638;2023-05-14T23:39:58;5.15;;;4.53;;
51692;SDS011;37777;53.066;21.638;2023-05-14T23:47:03;5.63;;;4.72;;
51692;SDS011;37777;53.066;21.638;2023-05-14T23:54:06;8.70;;;5.28;;
